Theodore Francis Green State Airport
KPVD : now visible

Airfield :











YOU CAN JOIN US ON...

 
LOGIN :

Register | Disclaimer

   EN    FR    IT 

 









Legend :    VFR   Marginal VFR   IFR   Intensive IFR   Very Intensive IFR
Visi :
Ceiling :
>= 8 km
>= 3000ft
5 to 8 km
1000 to 3000 ft
1500m to 5 km
500 to 1000 ft
800 to 1500m
200 to 500 ft
< 800m
< 200 ft
Symbols :   Thunderstorms  Fog  Heavy snow  Heavy precipitations  Wind > 20 kt






- Airport Elevation : 55 ft
- IATA code : PVD


KPVD - Theodore Francis Green State

CURRENT METAR :
  • 191651Z 28012G16KT 10SM FEW060 FEW250 32/13 A3003 RMK AO2 SLP167 T03220128

EXPIRED METARs :
  • 191551Z COR 32010KT 10SM FEW060 FEW250 31/13 A3004 RMK AO2 SLP170 T03110133
  • 191451Z 30008KT 10SM FEW250 29/14 A3004 RMK AO2 SLP173 T02940139 51006
  • 191351Z 24006KT 10SM FEW250 28/14 A3004 RMK AO2 SLP172 T02780144

TAF KPVD
Valid from the 19 at 15:00 until the 20 at 12:00 UTC


191459Z 1915/2012 30008KT P6SM FEW250
FM192100 22008KT P6SM SCT080
FM200300 24003KT P6SM FEW090
KZBW FIR / North America



MET'MAP, your aeronautical weather chart ! - Copyright ORBIFLY December 2007 - Disclaimer

ORBIFLY MET'MAP TEAM :

Programming & Development : Alexandra Zaïnal
Original concept : Baudouin d'Aumeries
Technical & hardware support : Manuel Goepfert
Assistance : Marc-Olivier Méhu




SOURCES & CREDITS :

   NOAA       Earth
Advisory